Time,TemperatureF,DewpointF,PressureIn,WindDirection,WindDirectionDegrees,WindSpeedMPH,WindSpeedGustMPH,Humidity,HourlyPrecipIn,Conditions,Clouds,dailyrainin,SoftwareType,DateUTC
2013-04-04 00:00:00,64.9,63.4,30.02,SE,135,10.0,14.0,95,0.01,,,0.00,Weather View 32 v70,2013-04-04 04:00:00,
2013-04-04 00:10:00,65.0,63.5,30.02,SE,140,5.0,14.0,95,0.01,,,0.00,Weather View 32 v70,2013-04-04 04:10:00,
2013-04-04 00:20:00,65.0,63.5,30.01,ESE,114,9.0,14.0,95,0.01,,,0.00,Weather View 32 v70,2013-04-04 04:20:00,
2013-04-04 00:23:00,65.0,63.5,30.01,ESE,114,9.0,14.0,95,0.01,,,0.00,Weather View 32 v70,2013-04-04 04:23:00,
2013-04-04 00:31:00,65.1,63.6,30.03,SE,127,7.0,14.0,95,0.01,,,0.00,Weather View 32 v70,2013-04-04 04:31:00,
2013-04-04 00:40:00,65.2,63.4,30.03,SE,127,3.0,14.0,94,0.01,,,0.00,Weather View 32 v70,2013-04-04 04:40:00,
2013-04-04 00:50:00,65.3,63.5,30.03,SE,138,3.0,14.0,94,0.00,,,0.00,Weather View 32 v70,2013-04-04 04:50:00,
2013-04-04 01:00:00,65.4,63.6,30.03,SSE,152,5.0,14.0,94,0.00,,,0.00,Weather View 32 v70,2013-04-04 05:00:00,
2013-04-04 01:10:00,65.5,63.7,30.02,SE,144,3.0,10.0,94,0.00,,,0.00,Weather View 32 v70,2013-04-04 05:10:00,
2013-04-04 01:20:00,65.6,63.8,30.02,SE,125,4.0,10.0,94,0.00,,,0.00,Weather View 32 v70,2013-04-04 05:20:00,
2013-04-04 01:30:00,65.6,63.8,30.02,SE,128,3.0,10.0,94,0.00,,,0.00,Weather View 32 v70,2013-04-04 05:30:00,
2013-04-04 01:40:00,65.8,64.0,30.02,SE,144,6.0,10.0,94,0.00,,,0.00,Weather View 32 v70,2013-04-04 05:40:00,
2013-04-04 01:50:00,65.8,64.0,30.01,SE,145,7.0,10.0,94,0.00,,,0.00,Weather View 32 v70,2013-04-04 05:50:00,
2013-04-04 02:00:00,66.0,64.2,30.01,SE,140,9.0,11.0,94,0.00,,,0.00,Weather View 32 v70,2013-04-04 06:00:00,
2013-04-04 02:10:00,66.1,64.3,30.00,SE,145,4.0,11.0,94,0.00,,,0.00,Weather View 32 v70,2013-04-04 06:10:00,
2013-04-04 02:20:00,66.4,64.6,30.00,SSE,151,8.0,12.0,94,0.00,,,0.00,Weather View 32 v70,2013-04-04 06:20:00,
2013-04-04 02:24:00,66.4,64.6,30.00,SSE,151,8.0,12.0,94,0.00,,,0.00,Weather View 32 v70,2013-04-04 06:24:00,
2013-04-04 02:30:00,66.5,64.7,29.99,SE,141,6.0,12.0,94,0.00,,,0.00,Weather View 32 v70,2013-04-04 06:30:00,
2013-04-04 02:40:00,66.3,64.5,29.98,SSE,156,3.0,12.0,94,0.00,,,0.00,Weather View 32 v70,2013-04-04 06:40:00,
2013-04-04 02:50:00,66.3,64.5,29.98,SE,136,6.0,12.0,94,0.00,,,0.00,Weather View 32 v70,2013-04-04 06:50:00,
2013-04-04 03:00:00,66.3,64.5,29.98,SSE,149,5.0,12.0,94,0.00,,,0.00,Weather View 32 v70,2013-04-04 07:00:00,
2013-04-04 03:10:00,66.3,64.5,29.98,SE,146,6.0,12.0,94,0.00,,,0.00,Weather View 32 v70,2013-04-04 07:10:00,
2013-04-04 03:20:00,66.4,64.6,29.97,SSE,165,1.0,11.0,94,0.00,,,0.00,Weather View 32 v70,2013-04-04 07:20:00,
2013-04-04 03:24:00,66.4,64.6,29.97,SSE,165,1.0,11.0,94,0.00,,,0.00,Weather View 32 v70,2013-04-04 07:24:00,
2013-04-04 03:31:00,66.3,64.5,29.96,South,177,6.0,11.0,94,0.00,,,0.00,Weather View 32 v70,2013-04-04 07:31:00,
2013-04-04 03:41:00,66.4,64.6,29.96,SSE,166,3.0,11.0,94,0.00,,,0.00,Weather View 32 v70,2013-04-04 07:41:00,
2013-04-04 03:51:00,66.4,64.6,29.95,SE,144,5.0,11.0,94,0.00,,,0.00,Weather View 32 v70,2013-04-04 07:51:00,
2013-04-04 04:00:00,66.5,64.7,29.96,SE,140,3.0,11.0,94,0.00,,,0.00,Weather View 32 v70,2013-04-04 08:00:00,
2013-04-04 04:10:00,66.5,64.7,29.95,SE,130,5.0,11.0,94,0.00,,,0.00,Weather View 32 v70,2013-04-04 08:10:00,
2013-04-04 04:20:00,66.6,64.8,29.95,SE,135,4.0,11.0,94,0.00,,,0.00,Weather View 32 v70,2013-04-04 08:20:00,
2013-04-04 04:25:00,66.6,64.8,29.95,SE,135,4.0,11.0,94,0.00,,,0.00,Weather View 32 v70,2013-04-04 08:25:00,
2013-04-04 04:30:00,66.7,64.9,29.95,ESE,107,0.0,10.0,94,0.00,,,0.00,Weather View 32 v70,2013-04-04 08:30:00,
2013-04-04 04:40:00,66.8,65.0,29.95,South,175,0.0,10.0,94,0.00,,,0.00,Weather View 32 v70,2013-04-04 08:40:00,
2013-04-04 04:50:00,66.8,65.0,29.95,SE,146,6.0,8.0,94,0.00,,,0.00,Weather View 32 v70,2013-04-04 08:50:00,
2013-04-04 05:01:00,66.8,65.0,29.94,SSE,155,2.0,9.0,94,0.00,,,0.00,Weather View 32 v70,2013-04-04 09:01:00,
2013-04-04 05:10:00,66.8,65.0,29.93,SSE,159,3.0,9.0,94,0.00,,,0.00,Weather View 32 v70,2013-04-04 09:10:00,
2013-04-04 05:21:00,66.9,65.4,29.94,SE,136,4.0,9.0,95,0.00,,,0.00,Weather View 32 v70,2013-04-04 09:21:00,
2013-04-04 05:26:00,66.9,65.4,29.94,SE,136,4.0,9.0,95,0.00,,,0.00,Weather View 32 v70,2013-04-04 09:26:00,
2013-04-04 05:31:00,66.9,65.1,29.93,SSE,161,0.0,9.0,94,0.00,,,0.00,Weather View 32 v70,2013-04-04 09:31:00,
2013-04-04 05:40:00,66.9,65.4,29.93,SE,132,1.0,9.0,95,0.00,,,0.00,Weather View 32 v70,2013-04-04 09:40:00,
2013-04-04 05:50:00,66.8,65.3,29.93,SE,145,1.0,9.0,95,0.00,,,0.00,Weather View 32 v70,2013-04-04 09:50:00,
2013-04-04 06:01:00,66.8,65.3,29.94,ESE,106,0.0,7.0,95,0.00,,,0.00,Weather View 32 v70,2013-04-04 10:01:00,
2013-04-04 06:10:00,66.8,65.3,29.94,ESE,107,2.0,7.0,95,0.00,,,0.00,Weather View 32 v70,2013-04-04 10:10:00,
2013-04-04 06:21:00,66.8,65.3,29.95,East,101,1.0,6.0,95,0.00,,,0.00,Weather View 32 v70,2013-04-04 10:21:00,
2013-04-04 06:26:00,66.8,65.3,29.95,East,101,1.0,6.0,95,0.00,,,0.00,Weather View 32 v70,2013-04-04 10:26:00,
2013-04-04 06:40:00,66.7,65.2,29.95,ESE,120,0.0,5.0,95,0.00,,,0.00,Weather View 32 v70,2013-04-04 10:40:00,
2013-04-04 06:50:00,66.8,65.6,29.95,ESE,120,0.0,5.0,96,0.00,,,0.00,Weather View 32 v70,2013-04-04 10:50:00,
2013-04-04 07:00:00,66.6,65.4,29.95,ENE,69,0.0,5.0,96,0.00,,,0.00,Weather View 32 v70,2013-04-04 11:00:00,
2013-04-04 07:10:00,66.6,65.4,29.95,ENE,69,0.0,4.0,96,0.00,,,0.00,Weather View 32 v70,2013-04-04 11:10:00,
2013-04-04 07:20:00,66.7,65.5,29.95,ENE,69,0.0,3.0,96,0.00,,,0.00,Weather View 32 v70,2013-04-04 11:20:00,
2013-04-04 07:27:00,66.7,65.5,29.95,ENE,69,0.0,3.0,96,0.00,,,0.00,Weather View 32 v70,2013-04-04 11:27:00,
2013-04-04 07:41:00,67.0,65.8,29.94,South,187,1.0,2.0,96,0.00,,,0.00,Weather View 32 v70,2013-04-04 11:41:00,
2013-04-04 07:51:00,67.4,66.2,29.94,SSE,160,1.0,4.0,96,0.00,,,0.00,Weather View 32 v70,2013-04-04 11:51:00,
2013-04-04 08:00:00,67.6,66.4,29.95,WSW,242,2.0,7.0,96,0.00,,,0.00,Weather View 32 v70,2013-04-04 12:00:00,
2013-04-04 08:10:00,67.7,66.5,29.94,SSW,206,0.0,7.0,96,0.00,,,0.00,Weather View 32 v70,2013-04-04 12:10:00,
2013-04-04 08:20:00,68.1,66.9,29.94,SSW,213,6.0,7.0,96,0.00,,,0.00,Weather View 32 v70,2013-04-04 12:20:00,
2013-04-04 08:27:00,68.1,66.9,29.94,SSW,213,6.0,7.0,96,0.00,,,0.00,Weather View 32 v70,2013-04-04 12:27:00,
2013-04-04 08:31:00,68.0,66.8,29.94,SW,221,3.0,7.0,96,0.00,,,0.00,Weather View 32 v70,2013-04-04 12:31:00,
2013-04-04 08:41:00,68.1,66.9,29.94,SW,227,2.0,7.0,96,0.00,,,0.00,Weather View 32 v70,2013-04-04 12:41:00,
2013-04-04 08:51:00,68.5,67.3,29.94,SSW,209,1.0,7.0,96,0.00,,,0.00,Weather View 32 v70,2013-04-04 12:51:00,
2013-04-04 09:01:00,68.8,67.3,29.94,SW,215,3.0,7.0,95,0.00,,,0.00,Weather View 32 v70,2013-04-04 13:01:00,
2013-04-04 09:10:00,69.3,67.8,29.94,WSW,244,2.0,7.0,95,0.00,,,0.00,Weather View 32 v70,2013-04-04 13:10:00,
2013-04-04 09:20:00,69.7,68.2,29.94,WSW,248,3.0,7.0,95,0.00,,,0.00,Weather View 32 v70,2013-04-04 13:20:00,
2013-04-04 09:28:00,69.7,68.2,29.94,WSW,248,3.0,7.0,95,0.00,,,0.00,Weather View 32 v70,2013-04-04 13:28:00,
2013-04-04 09:30:00,70.1,68.3,29.94,WSW,242,2.0,6.0,94,0.00,,,0.00,Weather View 32 v70,2013-04-04 13:30:00,
2013-04-04 09:40:00,70.4,68.3,29.94,West,262,6.0,8.0,93,0.00,,,0.00,Weather View 32 v70,2013-04-04 13:40:00,
2013-04-04 09:50:00,70.6,68.2,29.94,WSW,244,8.0,11.0,92,0.00,,,0.00,Weather View 32 v70,2013-04-04 13:50:00,
2013-04-04 10:00:00,70.9,68.4,29.95,WSW,248,3.0,11.0,92,0.00,,,0.00,Weather View 32 v70,2013-04-04 14:00:00,
2013-04-04 10:11:00,71.1,68.6,29.94,WSW,250,4.0,11.0,92,0.00,,,0.00,Weather View 32 v70,2013-04-04 14:11:00,
2013-04-04 10:21:00,71.4,68.3,29.94,West,263,4.0,11.0,90,0.00,,,0.00,Weather View 32 v70,2013-04-04 14:21:00,
2013-04-04 10:29:00,71.4,68.3,29.94,West,263,4.0,11.0,90,0.00,,,0.00,Weather View 32 v70,2013-04-04 14:29:00,
2013-04-04 10:30:00,71.8,68.7,29.94,WSW,258,5.0,11.0,90,0.00,,,0.00,Weather View 32 v70,2013-04-04 14:30:00,
2013-04-04 10:41:00,72.0,68.6,29.94,WSW,249,3.0,11.0,89,0.00,,,0.00,Weather View 32 v70,2013-04-04 14:41:00,
2013-04-04 10:51:00,72.4,68.6,29.94,WSW,238,3.0,9.0,88,0.00,,,0.00,Weather View 32 v70,2013-04-04 14:51:00,
2013-04-04 11:01:00,72.6,68.8,29.95,NW,324,0.0,9.0,88,0.00,,,0.00,Weather View 32 v70,2013-04-04 15:01:00,
2013-04-04 11:11:00,72.9,68.8,29.95,NW,312,2.0,9.0,87,0.00,,,0.00,Weather View 32 v70,2013-04-04 15:11:00,
2013-04-04 11:21:00,73.0,68.2,29.95,WSW,247,6.0,10.0,85,0.00,,,0.00,Weather View 32 v70,2013-04-04 15:21:00,
2013-04-04 11:30:00,72.9,68.4,29.95,West,265,5.0,10.0,86,0.00,,,0.00,Weather View 32 v70,2013-04-04 15:30:00,
2013-04-04 11:41:00,73.2,68.7,29.95,West,263,1.0,10.0,86,0.00,,,0.00,Weather View 32 v70,2013-04-04 15:41:00,
2013-04-04 11:51:00,73.3,68.5,29.94,WSW,245,6.0,11.0,85,0.00,,,0.00,Weather View 32 v70,2013-04-04 15:51:00,
2013-04-04 12:01:00,73.3,67.8,29.93,WSW,238,4.0,13.0,83,0.00,,,0.00,Weather View 32 v70,2013-04-04 16:01:00,
2013-04-04 12:10:00,73.9,68.4,29.95,WSW,257,5.0,13.0,83,0.00,,,0.00,Weather View 32 v70,2013-04-04 16:10:00,
2013-04-04 12:20:00,74.3,68.4,29.95,WSW,258,4.0,13.0,82,0.00,,,0.00,Weather View 32 v70,2013-04-04 16:20:00,
2013-04-04 12:21:00,74.3,68.4,29.95,WSW,258,4.0,13.0,82,0.00,,,0.00,Weather View 32 v70,2013-04-04 16:21:00,
2013-04-04 12:30:00,74.9,68.7,29.95,WNW,290,2.0,13.0,81,0.00,,,0.00,Weather View 32 v70,2013-04-04 16:30:00,
2013-04-04 12:40:00,74.5,67.9,29.94,WSW,241,7.0,14.0,80,0.00,,,0.00,Weather View 32 v70,2013-04-04 16:40:00,
2013-04-04 12:51:00,74.3,67.7,29.93,SW,229,4.0,14.0,80,0.00,,,0.00,Weather View 32 v70,2013-04-04 16:51:00,
2013-04-04 13:00:00,74.3,67.7,29.93,WSW,243,6.0,14.0,80,0.00,,,0.00,Weather View 32 v70,2013-04-04 17:00:00,
2013-04-04 13:10:00,74.3,67.7,29.93,West,263,4.0,14.0,80,0.00,,,0.00,Weather View 32 v70,2013-04-04 17:10:00,
2013-04-04 13:21:00,74.3,67.7,29.93,WSW,254,7.0,14.0,80,0.00,,,0.00,Weather View 32 v70,2013-04-04 17:21:00,
2013-04-04 13:31:00,74.5,67.5,29.93,West,269,10.0,15.0,79,0.00,,,0.00,Weather View 32 v70,2013-04-04 17:31:00,
2013-04-04 13:41:00,74.6,67.6,29.92,WSW,243,5.0,16.0,79,0.00,,,0.00,Weather View 32 v70,2013-04-04 17:41:00,
2013-04-04 13:50:00,74.8,67.8,29.93,West,266,2.0,17.0,79,0.00,,,0.00,Weather View 32 v70,2013-04-04 17:50:00,
2013-04-04 14:01:00,74.5,67.2,29.92,West,263,8.0,17.0,78,0.00,,,0.00,Weather View 32 v70,2013-04-04 18:01:00,
2013-04-04 14:11:00,74.6,67.6,29.93,NNW,340,5.0,17.0,79,0.00,,,0.00,Weather View 32 v70,2013-04-04 18:11:00,
2013-04-04 14:20:00,74.5,67.2,29.91,West,281,3.0,17.0,78,0.00,,,0.00,Weather View 32 v70,2013-04-04 18:20:00,
2013-04-04 14:30:00,74.8,67.1,29.92,SW,236,4.0,17.0,77,0.00,,,0.00,Weather View 32 v70,2013-04-04 18:30:00,
2013-04-04 14:41:00,74.8,67.1,29.91,West,271,9.0,17.0,77,0.00,,,0.00,Weather View 32 v70,2013-04-04 18:41:00,
2013-04-04 14:50:00,74.8,67.1,29.91,North,0,7.0,16.0,77,0.00,,,0.00,Weather View 32 v70,2013-04-04 18:50:00,
2013-04-04 15:00:00,74.9,67.2,29.90,WSW,247,6.0,16.0,77,0.00,,,0.00,Weather View 32 v70,2013-04-04 19:00:00,
2013-04-04 15:11:00,74.8,66.7,29.89,WSW,250,9.0,15.0,76,0.00,,,0.00,Weather View 32 v70,2013-04-04 19:11:00,
2013-04-04 15:21:00,74.6,67.3,29.89,WSW,254,2.0,15.0,78,0.00,,,0.00,Weather View 32 v70,2013-04-04 19:21:00,
2013-04-04 15:30:00,74.5,66.8,29.89,NW,318,1.0,16.0,77,0.00,,,0.00,Weather View 32 v70,2013-04-04 19:30:00,
2013-04-04 15:32:00,74.5,66.8,29.89,NW,318,1.0,16.0,77,0.00,,,0.00,Weather View 32 v70,2013-04-04 19:32:00,
2013-04-04 15:41:00,74.4,65.9,29.89,WSW,248,0.0,16.0,75,0.00,,,0.00,Weather View 32 v70,2013-04-04 19:41:00,
2013-04-04 15:50:00,74.0,65.5,29.88,WSW,251,7.0,16.0,75,0.00,,,0.00,Weather View 32 v70,2013-04-04 19:50:00,
2013-04-04 16:00:00,73.9,65.8,29.88,WNW,283,5.0,16.0,76,0.00,,,0.00,Weather View 32 v70,2013-04-04 20:00:00,
2013-04-04 16:11:00,73.7,64.9,29.89,WSW,241,6.0,20.0,74,0.00,,,0.00,Weather View 32 v70,2013-04-04 20:11:00,
2013-04-04 16:20:00,73.4,65.0,29.88,West,265,2.0,20.0,75,0.00,,,0.00,Weather View 32 v70,2013-04-04 20:20:00,
2013-04-04 16:30:00,73.6,65.2,29.88,NW,323,0.0,20.0,75,0.00,,,0.00,Weather View 32 v70,2013-04-04 20:30:00,
2013-04-04 16:41:00,73.8,65.3,29.88,SSW,194,2.0,20.0,75,0.00,,,0.00,Weather View 32 v70,2013-04-04 20:41:00,
2013-04-04 16:50:00,73.9,65.8,29.87,SW,232,4.0,20.0,76,0.00,,,0.00,Weather View 32 v70,2013-04-04 20:50:00,
2013-04-04 17:01:00,74.1,65.6,29.87,West,265,2.0,20.0,75,0.00,,,0.00,Weather View 32 v70,2013-04-04 21:01:00,
2013-04-04 17:11:00,74.3,65.4,29.87,West,274,4.0,17.0,74,0.00,,,0.00,Weather View 32 v70,2013-04-04 21:11:00,
2013-04-04 17:30:00,74.1,65.2,29.86,WSW,257,11.0,16.0,74,0.00,,,0.00,Weather View 32 v70,2013-04-04 21:30:00,
2013-04-04 17:40:00,74.2,65.3,29.87,NW,304,0.0,16.0,74,0.00,,,0.00,Weather View 32 v70,2013-04-04 21:40:00,
2013-04-04 17:51:00,74.3,65.4,29.87,SW,219,2.0,16.0,74,0.00,,,0.00,Weather View 32 v70,2013-04-04 21:51:00,
2013-04-04 18:01:00,74.2,65.3,29.87,WNW,290,3.0,16.0,74,0.00,,,0.00,Weather View 32 v70,2013-04-04 22:01:00,
2013-04-04 18:10:00,74.6,65.7,29.87,North,360,0.0,16.0,74,0.00,,,0.00,Weather View 32 v70,2013-04-04 22:10:00,
2013-04-04 18:21:00,74.6,65.7,29.87,North,360,0.0,16.0,74,0.00,,,0.00,Weather View 32 v70,2013-04-04 22:21:00,
2013-04-04 18:31:00,74.6,65.7,29.87,WNW,294,2.0,11.0,74,0.00,,,0.00,Weather View 32 v70,2013-04-04 22:31:00,
2013-04-04 18:34:00,74.6,65.7,29.87,WNW,294,2.0,11.0,74,0.00,,,0.00,Weather View 32 v70,2013-04-04 22:34:00,
2013-04-04 18:40:00,74.6,65.3,29.87,North,5,0.0,7.0,73,0.00,,,0.00,Weather View 32 v70,2013-04-04 22:40:00,
2013-04-04 18:50:00,74.1,65.2,29.86,NW,319,1.0,6.0,74,0.00,,,0.00,Weather View 32 v70,2013-04-04 22:50:00,
2013-04-04 19:00:00,73.5,65.1,29.86,West,267,1.0,7.0,75,0.00,,,0.00,Weather View 32 v70,2013-04-04 23:00:00,
2013-04-04 19:10:00,73.1,64.7,29.86,WSW,237,0.0,7.0,75,0.00,,,0.00,Weather View 32 v70,2013-04-04 23:10:00,
2013-04-04 19:20:00,72.9,64.9,29.86,SW,219,2.0,7.0,76,0.00,,,0.00,Weather View 32 v70,2013-04-04 23:20:00,
2013-04-04 19:31:00,72.4,64.4,29.86,NW,310,1.0,7.0,76,0.00,,,0.00,Weather View 32 v70,2013-04-04 23:31:00,
2013-04-04 19:34:00,72.4,64.4,29.86,NW,310,1.0,7.0,76,0.00,,,0.00,Weather View 32 v70,2013-04-04 23:34:00,
2013-04-04 19:41:00,71.9,64.6,29.86,NW,310,0.0,7.0,78,0.00,,,0.00,Weather View 32 v70,2013-04-04 23:41:00,
2013-04-04 19:51:00,71.4,64.2,29.86,NW,305,0.0,7.0,78,0.00,,,0.00,Weather View 32 v70,2013-04-04 23:51:00,
2013-04-04 20:01:00,71.0,64.1,29.87,NNW,333,0.0,5.0,79,0.00,,,0.00,Weather View 32 v70,2013-04-05 00:01:00,
2013-04-04 20:11:00,70.5,64.4,29.87,NNW,333,0.0,5.0,81,0.00,,,0.00,Weather View 32 v70,2013-04-05 00:11:00,
2013-04-04 20:21:00,69.9,64.1,29.88,NNW,333,0.0,4.0,82,0.00,,,0.00,Weather View 32 v70,2013-04-05 00:21:00,
2013-04-04 20:31:00,69.6,63.8,29.88,NNW,333,0.0,4.0,82,0.00,,,0.00,Weather View 32 v70,2013-04-05 00:31:00,
2013-04-04 20:35:00,69.6,63.8,29.88,NNW,333,0.0,4.0,82,0.00,,,0.00,Weather View 32 v70,2013-04-05 00:35:00,
2013-04-04 20:40:00,69.5,63.7,29.88,NNW,333,0.0,1.0,82,0.00,,,0.00,Weather View 32 v70,2013-04-05 00:40:00,
2013-04-04 20:51:00,69.5,64.4,29.88,NNW,333,0.0,0.0,84,0.00,,,0.00,Weather View 32 v70,2013-04-05 00:51:00,
2013-04-04 21:01:00,69.5,63.7,29.88,NNW,333,0.0,0.0,82,0.00,,,0.00,Weather View 32 v70,2013-04-05 01:01:00,
2013-04-04 21:10:00,69.4,63.6,29.88,SW,231,0.0,1.0,82,0.00,,,0.00,Weather View 32 v70,2013-04-05 01:10:00,
2013-04-04 21:21:00,69.5,63.7,29.88,SW,234,0.0,2.0,82,0.00,,,0.00,Weather View 32 v70,2013-04-05 01:21:00,
2013-04-04 21:31:00,69.6,63.8,29.89,West,273,0.0,5.0,82,0.00,,,0.00,Weather View 32 v70,2013-04-05 01:31:00,
2013-04-04 21:35:00,69.6,63.8,29.89,West,273,0.0,5.0,82,0.00,,,0.00,Weather View 32 v70,2013-04-05 01:35:00,
2013-04-04 21:40:00,69.7,63.9,29.88,North,0,0.0,5.0,82,0.00,,,0.00,Weather View 32 v70,2013-04-05 01:40:00,
2013-04-04 21:51:00,69.7,63.6,29.88,NW,306,3.0,5.0,81,0.00,,,0.00,Weather View 32 v70,2013-04-05 01:51:00,
2013-04-04 22:01:00,69.5,63.4,29.89,WSW,240,1.0,5.0,81,0.00,,,0.00,Weather View 32 v70,2013-04-05 02:01:00,
2013-04-04 22:11:00,69.3,63.2,29.89,WNW,282,0.0,5.0,81,0.00,,,0.00,Weather View 32 v70,2013-04-05 02:11:00,
2013-04-04 22:21:00,69.0,63.3,29.89,WNW,282,0.0,5.0,82,0.00,,,0.00,Weather View 32 v70,2013-04-05 02:21:00,
2013-04-04 22:30:00,69.1,63.4,29.89,WNW,282,0.0,5.0,82,0.00,,,0.00,Weather View 32 v70,2013-04-05 02:30:00,
2013-04-04 22:41:00,68.9,63.2,29.89,WNW,282,0.0,4.0,82,0.00,,,0.00,Weather View 32 v70,2013-04-05 02:41:00,
2013-04-04 22:51:00,68.7,63.3,29.89,WNW,282,0.0,4.0,83,0.00,,,0.00,Weather View 32 v70,2013-04-05 02:51:00,
2013-04-04 23:00:00,68.2,62.8,29.89,WNW,282,0.0,4.0,83,0.00,,,0.00,Weather View 32 v70,2013-04-05 03:00:00,
2013-04-04 23:10:00,68.1,62.7,29.90,WNW,282,0.0,2.0,83,0.00,,,0.00,Weather View 32 v70,2013-04-05 03:10:00,
2013-04-04 23:21:00,67.6,62.9,29.89,WNW,282,0.0,2.0,85,0.00,,,0.00,Weather View 32 v70,2013-04-05 03:21:00,
2013-04-04 23:31:00,67.0,62.7,29.89,WNW,282,0.0,2.0,86,0.00,,,0.00,Weather View 32 v70,2013-04-05 03:31:00,
2013-04-04 23:36:00,67.0,62.7,29.89,WNW,282,0.0,2.0,86,0.00,,,0.00,Weather View 32 v70,2013-04-05 03:36:00,
2013-04-04 23:41:00,66.6,62.6,29.89,WNW,282,0.0,1.0,87,0.00,,,0.00,Weather View 32 v70,2013-04-05 03:41:00,
2013-04-04 23:50:00,66.2,62.5,29.89,WNW,282,0.0,1.0,88,0.00,,,0.00,Weather View 32 v70,2013-04-05 03:50:00,